Wake Island, HI

9:13 PM HST on September 19, 2014 (GMT -1000)
Wake Island Army Air Field | Change Station
CLOSE
Current Station
Airport
Location: Wake Island, Wake Island Army,
Elevation: 13 ft
Nearby Weather Stations

Elev 13 ft 19.28 °N, 166.64 °E | Updated 15 minutes ago

Clear
Clear
84 °F
Feels Like 93 °F
N
20
Wind Variable Wind from East

Today
High -- | Low -- °F
--% Chance of Precip.
Yesterday
High -- | Low -- °F
Precip. -- in
8:41 AM 8:52 PM
Waning Crescent, 14% visible
Pressure 29.90 in
Visibility 6.2 miles
Clouds Clear
Heat Index 93 °F
Dew Point 76 °F
Humidity 77%
Rainfall 0.10 in
Snow Depth Not available.
UV 0 out of 12
Pollen Not available.
Air Quality Not available.
Flu Activity Not available.
METAR PWAK 200658Z AUTO 08017KT 9999 CLR 29/25 A2988 RMK AO2 RAB0615E0624 SLP125 P0000 T02900245

More Conditions Fewer Conditions

Pressure 29.90 in
Visibility 6.2 miles
Clouds Clear
Heat Index 93 °F
Dew Point 76 °F
Humidity 77%
Rainfall 0.10 in
Snow Depth Not available.
UV 0 out of 12
Pollen Not available.
Air Quality Not available.
Flu Activity Not available.
METAR PWAK 200658Z AUTO 08017KT 9999 CLR 29/25 A2988 RMK AO2 RAB0615E0624 SLP125 P0000 T02900245

More Conditions Fewer Conditions

10-Day Weather Forecast

Almanac

Astronomy

Sep. 19, 2014 Rise Set
Actual Time 8:41 AM HST 8:52 PM HST
Civil Twilight 8:19 AM HST 9:14 PM HST
Nautical Twilight 7:54 AM HST 9:40 PM HST
Astronomical Twilight 7:28 AM HST 10:05 PM HST
Moon 5:08 AM HST (9/19) 6:08 PM HST (9/19)
Length of Visible Light 12h 55m
Length of Day
12h 11m
Tomorrow will be 1m 6s shorter.
Waning Crescent, 14% of the Moon is Illuminated
Sep 20
Waning Crescent
Sep 24
New
Oct 1
First Quarter
Oct 8
Full
Oct 15
Last Quarter

Yesterday's Extremes

State Highs State Lows

Community

WunderPhotos

Upload Photos

1,754,792 photos uploaded!

WunderBlogs® & News

Nearby

Snow Depth

Station Depth Elevation
No new snow has been reported.

Earthquake Activity

City Distance Mag. Time & Date
No recent earthquake activity has been reported nearby.
Minimum magnitude displayed is 2.5.

Coastal Water Temperatures

Place Temperature
No Stations Reporting

Nearby Weather Stations